Terminal Aerodrome Forecast
Issued by NWS

Home | Current Version | Previous Version | Text Only | Print | Product List | Glossary On
Versions: 1 2 3 4 5 6 7 8 9 10 11 12 13 14 15
783
FTAK31 PAJN 300540
TAFAPG
TAF
PAPG 300540Z 3006/0106 VRB03KT P6SM OVC070
     FM301800 05004KT P6SM VCSH BKN050 OVC070
     FM302200 20005KT P6SM -SHRA BKN035 OVC045
     FM010100 VRB03KT P6SM -SHRA BKN030 OVC040
      AMD LTD TO CLD VIS AND WIND 3006/3015=

USA.gov is the U.S. government's official web portal to all federal, state and local government web resources and services.